Aérodrome :
LOGIN :

S'inscrire | Disclaimer

   EN    FR    IT 

 










Légende :    VFR   VFR Marginal   IFR   IFR Intensif   IFR Très Intensif
Visi : 
Plafond : 
>= 8 km
>= 3000ft
5 à 8 km
1000 à 3000 ft
1500m à 5 km
500 à 1000 ft
800 à 1500m
200 à 500 ft
< 800m
< 200 ft
Symboles :   Orages  Brouillard  Fortes neiges  Fortes précipitations  Vent > 20 kt
SIGMETs :   Divers  Orages  Givrage  Turbulence  Onde Orograph.  Cendres Volcan.






- Altitude de l'aérodrome : 433 ft
- Code IATA : CCF


LFMK - Carcassonne

DERNIER METAR :
  • 190130Z AUTO 26006KT 9999 FEW056 14/13 Q1018

METARs EXPIRÉS :
  • 190100Z AUTO 26007KT 230V290 9999 FEW026 14/13 Q1018
  • 190030Z AUTO 27006KT 9999 FEW058 14/13 Q1018
  • 190000Z AUTO 28005KT 9999 FEW023 14/13 Q1018
  • 182330Z AUTO 27007KT 9999 BKN022 BKN039 BKN046 15/13 Q1018
  • 182300Z AUTO 27005KT 9999 BKN024 BKN030 15/14 Q1018

TAF TAF LFMK
Valide du 18 à 15h jusqu'au 19 à 15h UTC


181400Z 1815/1915 28010KT 9999 BKN040
TEMPO 1815/1822 SHRA SCT015 FEW020CB
PROB40
TEMPO 1815/1821 VRB20G30KT 3000 TSRA SCT010 BKN020 SCT020CB
BECMG 1909/1911 SCT040



MET'MAP, la Météo Aéronautique d'un coup d'oeil ! - Copyright ORBIFLY Décembre 2007 - Disclaimer

ORBIFLY MET'MAP TEAM :

Programmation & Développement : Alexandra Zaïnal
Sur une idée originale de : Baudouin d'Aumeries
Assistance à la programmation : Marc-Olivier Méhu
Soutien technique & logistique : Manuel Goepfert

Contact : metmap@orbifly.com




SOURCES & CREDITS :

   NOAA